createdAt,value
2022-10-25T00:00:41.431Z,0
2022-10-25T00:01:57.625Z,0
2022-10-25T00:03:13.803Z,0
2022-10-25T00:04:29.993Z,0
2022-10-25T00:05:46.177Z,0
2022-10-25T00:07:02.372Z,0
2022-10-25T00:08:18.571Z,0
2022-10-25T00:09:34.694Z,0
2022-10-25T00:10:50.931Z,0
2022-10-25T00:12:07.123Z,0
2022-10-25T00:13:22.326Z,0
2022-10-25T00:14:38.517Z,0
2022-10-25T00:15:54.721Z,0
2022-10-25T00:17:10.842Z,0
2022-10-25T00:18:27.100Z,0
2022-10-25T00:19:43.282Z,0
2022-10-25T00:20:59.466Z,0
2022-10-25T00:22:15.596Z,0
2022-10-25T00:23:31.853Z,0
2022-10-25T00:24:48.044Z,0
2022-10-25T00:26:04.226Z,0
2022-10-25T00:27:20.403Z,0
2022-10-25T00:28:36.608Z,0
2022-10-25T00:29:51.804Z,0
2022-10-25T00:31:07.991Z,0
2022-10-25T00:32:24.178Z,0
2022-10-25T00:33:40.310Z,0
2022-10-25T00:34:56.497Z,0
2022-10-25T00:36:12.760Z,0
2022-10-25T00:37:28.949Z,0
2022-10-25T00:38:45.138Z,0
2022-10-25T00:40:01.324Z,0
2022-10-25T00:41:17.432Z,0
2022-10-25T00:42:33.617Z,0
2022-10-25T00:43:49.894Z,0
2022-10-25T00:45:06.073Z,0
2022-10-25T00:46:21.283Z,0
2022-10-25T00:47:37.391Z,0
2022-10-25T00:48:53.000Z,0
2022-10-25T00:50:09.773Z,0
2022-10-25T00:51:25.953Z,0
2022-10-25T00:52:42.224Z,0
2022-10-25T00:53:58.416Z,0
2022-10-25T00:55:14.527Z,0
2022-10-25T00:56:30.723Z,0
2022-10-25T00:57:46.989Z,0
2022-10-25T00:59:03.183Z,0
2022-10-25T01:00:19.280Z,0
2022-10-25T01:01:35.558Z,0
2022-10-25T01:02:50.758Z,0
2022-10-25T01:04:06.873Z,0
2022-10-25T01:05:23.139Z,0
2022-10-25T01:06:39.329Z,0
2022-10-25T01:07:55.513Z,0
2022-10-25T01:09:11.626Z,0
2022-10-25T01:10:27.892Z,0
2022-10-25T01:11:43.988Z,0
2022-10-25T01:13:00.266Z,0
2022-10-25T01:14:16.459Z,0
2022-10-25T01:15:32.652Z,0
2022-10-25T01:16:48.845Z,0
2022-10-25T01:18:05.019Z,0
2022-10-25T01:19:20.137Z,0
2022-10-25T01:20:36.418Z,0
2022-10-25T01:21:52.606Z,0
2022-10-25T01:23:08.717Z,0
2022-10-25T01:24:24.988Z,0
2022-10-25T01:25:41.183Z,0
2022-10-25T01:26:56.308Z,0
2022-10-25T01:28:12.577Z,0
2022-10-25T01:29:28.762Z,0
2022-10-25T01:30:44.962Z,0
2022-10-25T01:32:01.049Z,0
2022-10-25T01:33:17.339Z,0
2022-10-25T01:34:33.426Z,0
2022-10-25T01:35:49.719Z,0
2022-10-25T01:37:05.808Z,0
2022-10-25T01:38:22.002Z,0
2022-10-25T01:39:38.280Z,0
2022-10-25T01:40:54.471Z,0
2022-10-25T01:42:10.569Z,0
2022-10-25T01:43:25.862Z,0
2022-10-25T01:44:42.045Z,0
2022-10-25T01:45:58.250Z,0
2022-10-25T01:47:14.429Z,0
2022-10-25T01:48:30.629Z,0
2022-10-25T01:49:46.808Z,0
2022-10-25T01:51:02.991Z,0
2022-10-25T01:52:19.180Z,0
2022-10-25T01:53:35.381Z,0
2022-10-25T01:54:51.562Z,0
2022-10-25T01:56:07.766Z,0
2022-10-25T01:57:23.845Z,0
2022-10-25T01:58:40.040Z,0
2022-10-25T01:59:55.337Z,0
2022-10-25T02:01:11.436Z,0
2022-10-25T02:02:27.717Z,0
2022-10-25T02:03:43.816Z,0
2022-10-25T02:05:00.101Z,0
2022-10-25T02:06:16.202Z,0
2022-10-25T02:07:32.385Z,0
2022-10-25T02:08:48.659Z,0
2022-10-25T02:10:04.753Z,0
2022-10-25T02:11:21.041Z,0
2022-10-25T02:12:37.133Z,0
2022-10-25T02:13:53.417Z,0
2022-10-25T02:15:09.606Z,0
2022-10-25T02:16:24.816Z,0
2022-10-25T02:17:40.903Z,0
2022-10-25T02:18:57.192Z,0
2022-10-25T02:20:13.292Z,0
2022-10-25T02:21:29.562Z,0
2022-10-25T02:22:45.654Z,0
2022-10-25T02:24:01.955Z,0
2022-10-25T02:25:18.138Z,0
2022-10-25T02:26:34.223Z,0
2022-10-25T02:27:50.417Z,0
2022-10-25T02:29:06.713Z,0
2022-10-25T02:30:22.894Z,0
2022-10-25T02:31:39.081Z,0
2022-10-25T02:32:54.181Z,0
2022-10-25T02:34:10.482Z,0
2022-10-25T02:35:26.669Z,0
2022-10-25T02:36:42.863Z,0
2022-10-25T02:37:59.039Z,0
2022-10-25T02:39:15.242Z,0
2022-10-25T02:40:31.422Z,0
2022-10-25T02:41:47.518Z,0
2022-10-25T02:43:03.712Z,0
2022-10-25T02:44:19.998Z,0
2022-10-25T02:45:36.189Z,0
2022-10-25T02:46:52.370Z,0
2022-10-25T02:48:08.567Z,0
2022-10-25T02:49:23.670Z,0
2022-10-25T02:50:39.853Z,0
2022-10-25T02:51:56.155Z,0
2022-10-25T02:53:12.332Z,0
2022-10-25T02:55:44.716Z,0
2022-10-25T02:57:00.793Z,0
2022-10-25T02:58:16.992Z,0
2022-10-25T02:59:33.285Z,0
2022-10-25T03:00:49.362Z,0
2022-10-25T03:02:05.652Z,0
2022-10-25T03:03:21.739Z,0
2022-10-25T03:04:38.031Z,0
2022-10-25T03:05:53.233Z,0
2022-10-25T03:07:09.331Z,0
2022-10-25T03:08:25.626Z,0
2022-10-25T03:09:41.818Z,0
2022-10-25T03:10:57.989Z,0
2022-10-25T03:12:14.189Z,0
2022-10-25T03:13:30.379Z,0
2022-10-25T03:14:46.562Z,0
2022-10-25T03:16:02.757Z,0
2022-10-25T03:17:18.945Z,0
2022-10-25T03:18:35.028Z,0
2022-10-25T03:19:51.202Z,0
2022-10-25T03:21:07.401Z,0
2022-10-25T03:22:22.720Z,0
2022-10-25T03:23:38.906Z,0
2022-10-25T03:24:55.098Z,0
2022-10-25T03:26:11.275Z,0
2022-10-25T03:27:27.473Z,0
2022-10-25T03:28:43.557Z,0
2022-10-25T03:29:59.850Z,0
2022-10-25T03:31:16.047Z,0
2022-10-25T03:32:32.105Z,0
2022-10-25T03:33:48.426Z,0
2022-10-25T03:35:04.603Z,0
2022-10-25T03:36:20.681Z,0
2022-10-25T03:37:36.980Z,0
2022-10-25T03:38:52.194Z,0
2022-10-25T03:40:08.375Z,0
2022-10-25T03:41:24.447Z,0
2022-10-25T03:42:40.746Z,0
2022-10-25T03:43:56.955Z,0
2022-10-25T03:45:13.024Z,0
2022-10-25T03:46:29.327Z,0
2022-10-25T03:47:45.520Z,0
2022-10-25T03:49:01.709Z,0
2022-10-25T03:50:17.892Z,0
2022-10-25T03:51:33.957Z,0
2022-10-25T03:52:50.275Z,0
2022-10-25T03:54:06.449Z,0
2022-10-25T03:55:21.671Z,0
2022-10-25T03:56:37.858Z,0
2022-10-25T03:57:53.931Z,0
2022-10-25T03:59:10.105Z,0
2022-10-25T04:00:26.413Z,0
2022-10-25T04:01:42.495Z,0
2022-10-25T04:02:58.788Z,0
2022-10-25T04:04:14.989Z,0
2022-10-25T04:05:31.168Z,0
2022-10-25T04:06:47.239Z,0
2022-10-25T04:08:03.549Z,0
2022-10-25T04:09:19.743Z,0
2022-10-25T04:10:35.935Z,0
2022-10-25T04:11:51.130Z,0
2022-10-25T04:13:07.329Z,0
2022-10-25T04:14:23.394Z,0
2022-10-25T04:15:39.700Z,0
2022-10-25T04:18:12.078Z,0
2022-10-25T04:19:28.274Z,0
2022-10-25T04:20:44.454Z,0
2022-10-25T04:22:00.531Z,0
2022-10-25T04:23:16.707Z,0
2022-10-25T04:24:33.031Z,0
2022-10-25T04:25:49.214Z,0
2022-10-25T04:27:05.404Z,0
2022-10-25T04:28:20.617Z,0
2022-10-25T04:29:36.789Z,0
2022-10-25T04:30:52.981Z,0
2022-10-25T04:32:09.042Z,0
2022-10-25T04:33:25.249Z,0
2022-10-25T04:34:41.562Z,0
2022-10-25T04:35:57.618Z,0
2022-10-25T04:37:13.799Z,0
2022-10-25T04:38:30.117Z,0
2022-10-25T04:39:46.185Z,0
2022-10-25T04:41:02.493Z,0
2022-10-25T04:42:18.000Z,0
2022-10-25T04:43:34.885Z,0
2022-10-25T04:44:49.956Z,0
2022-10-25T04:46:06.276Z,0
2022-10-25T04:47:22.469Z,0
2022-10-25T04:48:38.511Z,0
2022-10-25T04:49:54.712Z,0
2022-10-25T04:51:11.028Z,0
2022-10-25T04:52:27.088Z,0
2022-10-25T04:53:43.407Z,0
2022-10-25T04:54:59.604Z,0
2022-10-25T04:56:15.788Z,0
2022-10-25T04:57:31.845Z,0
2022-10-25T04:58:48.163Z,0
2022-10-25T05:00:04.224Z,0
2022-10-25T05:01:19.551Z,0
2022-10-25T05:02:35.618Z,0
2022-10-25T05:03:51.939Z,0
2022-10-25T05:05:07.990Z,0
2022-10-25T05:06:24.316Z,0
2022-10-25T05:07:40.366Z,0
2022-10-25T05:08:56.686Z,0
2022-10-25T05:10:12.888Z,0
2022-10-25T05:11:29.059Z,0
2022-10-25T05:12:45.262Z,0
2022-10-25T05:14:01.444Z,0
2022-10-25T05:15:17.493Z,0
2022-10-25T05:16:33.819Z,0
2022-10-25T05:17:49.027Z,0
2022-10-25T05:19:05.089Z,0
2022-10-25T05:20:21.261Z,0
2022-10-25T05:21:37.601Z,0
2022-10-25T05:22:53.658Z,0
2022-10-25T05:24:09.967Z,0
2022-10-25T05:25:26.017Z,0
2022-10-25T05:26:42.342Z,0
2022-10-25T05:27:58.532Z,0
2022-10-25T05:29:14.737Z,0
2022-10-25T05:30:30.913Z,0
2022-10-25T05:31:47.115Z,0
2022-10-25T05:33:03.299Z,0
2022-10-25T05:34:18.508Z,0
2022-10-25T05:35:34.682Z,0
2022-10-25T05:36:50.876Z,0
2022-10-25T05:38:06.935Z,0
2022-10-25T05:39:23.262Z,0
2022-10-25T05:40:39.440Z,0
2022-10-25T05:41:54.647Z,0
2022-10-25T05:43:10.841Z,0
2022-10-25T05:44:27.043Z,0
2022-10-25T05:45:43.232Z,0
2022-10-25T05:46:59.266Z,0
2022-10-25T05:48:15.605Z,0
2022-10-25T05:49:31.800Z,0
2022-10-25T05:50:47.989Z,0
2022-10-25T05:52:04.032Z,0
2022-10-25T05:53:20.222Z,0
2022-10-25T05:54:36.549Z,0
2022-10-25T05:55:52.743Z,0
2022-10-25T05:57:08.929Z,0
2022-10-25T05:58:23.997Z,0
2022-10-25T05:59:40.326Z,0
2022-10-25T06:00:56.365Z,0
2022-10-25T06:02:12.690Z,0
2022-10-25T06:03:28.896Z,0
2022-10-25T06:04:44.929Z,0
2022-10-25T06:06:01.111Z,0
2022-10-25T06:07:17.446Z,0
2022-10-25T06:08:33.502Z,5
2022-10-25T06:09:49.830Z,5
2022-10-25T06:11:06.012Z,5
2022-10-25T06:12:22.200Z,5
2022-10-25T06:13:38.397Z,5
2022-10-25T06:14:53.608Z,5
2022-10-25T06:16:09.653Z,5
2022-10-25T06:17:25.840Z,5
2022-10-25T06:18:42.183Z,5
2022-10-25T06:19:58.363Z,11
2022-10-25T06:21:14.548Z,11
2022-10-25T06:22:30.744Z,11
2022-10-25T06:23:46.932Z,11
2022-10-25T06:25:03.122Z,11
2022-10-25T06:26:19.299Z,11
2022-10-25T06:27:35.495Z,11
2022-10-25T06:28:51.543Z,11
2022-10-25T06:30:07.878Z,16
2022-10-25T06:31:22.929Z,16
2022-10-25T06:32:39.273Z,11
2022-10-25T06:33:55.451Z,16
2022-10-25T06:35:11.645Z,16
2022-10-25T06:36:27.678Z,22
2022-10-25T06:37:44.030Z,16
2022-10-25T06:39:00.050Z,16
2022-10-25T06:40:16.398Z,16
2022-10-25T06:41:32.590Z,11
2022-10-25T06:42:48.629Z,11
2022-10-25T06:44:04.815Z,11
2022-10-25T06:45:21.162Z,11
2022-10-25T06:46:37.185Z,16
2022-10-25T06:47:52.556Z,28
2022-10-25T06:49:08.733Z,28
2022-10-25T06:50:24.766Z,28
2022-10-25T06:51:41.114Z,22
2022-10-25T06:52:57.316Z,22
2022-10-25T06:54:13.334Z,28
2022-10-25T06:55:29.526Z,28
2022-10-25T06:56:45.873Z,28
2022-10-25T06:58:02.064Z,22
2022-10-25T06:59:18.244Z,16
2022-10-25T07:00:34.434Z,11
2022-10-25T07:01:50.631Z,16
2022-10-25T07:03:06.825Z,16
2022-10-25T07:04:22.023Z,28
2022-10-25T07:05:38.210Z,39
2022-10-25T07:06:54.412Z,39
2022-10-25T07:08:10.429Z,45
2022-10-25T07:09:26.780Z,28
2022-10-25T07:10:42.978Z,22
2022-10-25T07:11:59.152Z,22
2022-10-25T07:13:15.354Z,28
2022-10-25T07:14:31.375Z,39
2022-10-25T07:15:47.735Z,39
2022-10-25T07:17:03.754Z,45
2022-10-25T07:18:19.937Z,45
2022-10-25T07:19:36.284Z,45
2022-10-25T07:20:51.343Z,45
2022-10-25T07:22:07.685Z,45
2022-10-25T07:23:23.872Z,50
2022-10-25T07:24:39.899Z,50
2022-10-25T07:25:56.252Z,50
2022-10-25T07:27:12.437Z,45
2022-10-25T07:28:28.636Z,39
2022-10-25T07:29:44.816Z,39
2022-10-25T07:31:01.013Z,39
2022-10-25T07:32:17.043Z,45
2022-10-25T07:33:33.213Z,50
2022-10-25T07:34:49.575Z,56
2022-10-25T07:36:05.772Z,56
2022-10-25T07:37:20.980Z,61
2022-10-25T07:38:37.158Z,56
2022-10-25T07:39:53.181Z,50
2022-10-25T07:41:09.534Z,56
2022-10-25T07:42:25.725Z,56
2022-10-25T07:43:41.922Z,50
2022-10-25T07:44:58.097Z,50
2022-10-25T07:46:14.133Z,50
2022-10-25T07:47:30.306Z,39
2022-10-25T07:48:46.677Z,39
2022-10-25T07:50:02.854Z,39
2022-10-25T07:51:19.058Z,39
2022-10-25T07:52:35.232Z,50
2022-10-25T07:53:50.440Z,56
2022-10-25T07:55:06.468Z,61
2022-10-25T07:56:22.660Z,67
2022-10-25T07:57:39.009Z,73
2022-10-25T07:58:55.204Z,84
2022-10-25T08:00:11.229Z,84
2022-10-25T08:01:27.582Z,95
2022-10-25T08:02:43.606Z,101
2022-10-25T08:03:59.953Z,90
2022-10-25T08:05:16.156Z,84
2022-10-25T08:06:32.158Z,73
2022-10-25T08:07:48.530Z,73
2022-10-25T08:09:04.704Z,61
2022-10-25T08:10:19.755Z,56
2022-10-25T08:11:36.105Z,50
2022-10-25T08:12:52.295Z,56
2022-10-25T08:14:08.492Z,67
2022-10-25T08:15:24.684Z,73
2022-10-25T08:16:40.861Z,84
2022-10-25T08:17:56.871Z,78
2022-10-25T08:19:13.235Z,90
2022-10-25T08:20:29.416Z,106
2022-10-25T08:21:45.612Z,90
2022-10-25T08:23:01.796Z,61
2022-10-25T08:24:17.976Z,73
2022-10-25T08:25:34.004Z,84
2022-10-25T08:26:49.370Z,78
2022-10-25T08:28:05.555Z,67
2022-10-25T08:29:21.745Z,50
2022-10-25T08:30:37.934Z,45
2022-10-25T08:31:54.115Z,39
2022-10-25T08:33:10.309Z,45
2022-10-25T08:34:26.312Z,50
2022-10-25T08:35:42.684Z,56
2022-10-25T08:36:58.884Z,50
2022-10-25T08:38:14.890Z,39
2022-10-25T08:39:31.240Z,39
2022-10-25T08:40:47.249Z,39
2022-10-25T08:42:03.616Z,33
2022-10-25T08:43:18.825Z,39
2022-10-25T08:44:34.841Z,39
2022-10-25T08:45:51.212Z,45
2022-10-25T08:47:07.383Z,56
2022-10-25T08:48:23.400Z,78
2022-10-25T08:49:39.582Z,84
2022-10-25T08:50:55.776Z,84
2022-10-25T08:52:12.145Z,73
2022-10-25T08:53:28.331Z,67
2022-10-25T08:54:44.514Z,73
2022-10-25T08:56:00.519Z,73
2022-10-25T08:57:16.887Z,78
2022-10-25T08:58:33.080Z,84
2022-10-25T08:59:48.288Z,95
2022-10-25T09:01:04.459Z,101
2022-10-25T09:02:20.457Z,106
2022-10-25T09:03:36.656Z,101
2022-10-25T09:04:52.833Z,95
2022-10-25T09:06:09.033Z,95
2022-10-25T09:07:25.411Z,84
2022-10-25T09:08:41.600Z,78
2022-10-25T09:09:57.775Z,90
2022-10-25T09:11:13.966Z,90
2022-10-25T09:12:30.150Z,101
2022-10-25T09:13:46.338Z,101
2022-10-25T09:15:02.531Z,118
2022-10-25T09:16:17.721Z,135
2022-10-25T09:17:33.922Z,118
2022-10-25T09:18:50.115Z,106
2022-10-25T09:20:06.290Z,106
2022-10-25T09:21:22.470Z,106
2022-10-25T09:22:38.675Z,112
2022-10-25T09:23:54.861Z,135
2022-10-25T09:25:11.040Z,163
2022-10-25T09:26:27.222Z,112
2022-10-25T09:27:43.232Z,84
2022-10-25T09:28:59.613Z,95
2022-10-25T09:30:15.791Z,101
2022-10-25T09:31:31.978Z,101
2022-10-25T09:32:47.185Z,101
2022-10-25T09:34:03.361Z,101
2022-10-25T09:35:19.355Z,95
2022-10-25T09:36:35.747Z,101
2022-10-25T09:37:51.940Z,118
2022-10-25T09:39:08.119Z,129
2022-10-25T09:40:24.118Z,118
2022-10-25T09:41:40.483Z,101
2022-10-25T09:42:56.687Z,101
2022-10-25T09:44:12.873Z,101
2022-10-25T09:45:29.047Z,78
2022-10-25T09:46:45.249Z,73
2022-10-25T09:48:01.425Z,61
2022-10-25T09:49:16.446Z,61
2022-10-25T09:50:32.831Z,61
2022-10-25T09:51:49.018Z,67
2022-10-25T09:53:05.197Z,73
2022-10-25T09:54:21.393Z,67
2022-10-25T09:55:37.580Z,61
2022-10-25T09:56:52.771Z,67
2022-10-25T09:58:08.958Z,67
2022-10-25T09:59:25.158Z,67
2022-10-25T10:00:41.335Z,73
2022-10-25T10:01:57.537Z,73
2022-10-25T10:03:13.711Z,84
2022-10-25T10:04:29.703Z,101
2022-10-25T10:05:45.882Z,84
2022-10-25T10:07:02.279Z,90
2022-10-25T10:08:18.465Z,101
2022-10-25T10:09:34.648Z,106
2022-10-25T10:10:50.835Z,90
2022-10-25T10:12:06.835Z,78
2022-10-25T10:13:22.222Z,90
2022-10-25T10:14:38.214Z,95
2022-10-25T10:15:54.608Z,84
2022-10-25T10:17:10.793Z,45
2022-10-25T10:18:26.778Z,45
2022-10-25T10:19:42.959Z,50
2022-10-25T10:20:59.345Z,45
2022-10-25T10:22:15.532Z,45
2022-10-25T10:23:31.736Z,39
2022-10-25T10:24:47.707Z,73
2022-10-25T10:26:04.097Z,84
2022-10-25T10:27:20.091Z,61
2022-10-25T10:28:36.487Z,56
2022-10-25T10:29:51.685Z,73
2022-10-25T10:31:07.658Z,67
2022-10-25T10:32:24.048Z,90
2022-10-25T10:33:40.249Z,90
2022-10-25T10:34:56.428Z,78
2022-10-25T10:36:12.611Z,56
2022-10-25T10:37:28.806Z,61
2022-10-25T10:38:44.992Z,56
2022-10-25T10:40:01.173Z,50
2022-10-25T10:41:17.363Z,67
2022-10-25T10:42:33.551Z,67
2022-10-25T10:43:49.751Z,50
2022-10-25T10:45:05.940Z,56
2022-10-25T10:46:21.140Z,50
2022-10-25T10:47:37.316Z,78
2022-10-25T10:48:53.513Z,90
2022-10-25T10:50:09.487Z,78
2022-10-25T10:51:25.892Z,73
2022-10-25T10:52:42.060Z,67
2022-10-25T10:53:58.256Z,84
2022-10-25T10:55:14.452Z,50
2022-10-25T10:56:30.418Z,61
2022-10-25T10:57:46.610Z,56
2022-10-25T10:59:03.002Z,61
2022-10-25T11:00:19.201Z,50
2022-10-25T11:01:35.167Z,45
2022-10-25T11:02:50.578Z,45
2022-10-25T11:04:06.779Z,73
2022-10-25T11:05:22.738Z,112
2022-10-25T11:06:39.137Z,90
2022-10-25T11:07:55.338Z,180
2022-10-25T11:09:11.311Z,208
2022-10-25T11:10:27.485Z,258
2022-10-25T11:11:43.906Z,365
2022-10-25T11:12:59.879Z,393
2022-10-25T11:14:16.053Z,393
2022-10-25T11:15:32.466Z,320
2022-10-25T11:16:48.654Z,393
2022-10-25T11:18:04.826Z,253
2022-10-25T11:19:20.039Z,258
2022-10-25T11:20:36.003Z,281
2022-10-25T11:21:52.192Z,298
2022-10-25T11:23:08.389Z,371
2022-10-25T11:24:24.576Z,241
2022-10-25T11:25:40.982Z,270
2022-10-25T11:26:57.160Z,427
2022-10-25T11:28:13.357Z,388
2022-10-25T11:29:29.545Z,438
2022-10-25T11:30:45.726Z,421
2022-10-25T11:32:01.689Z,444
2022-10-25T11:33:18.103Z,466
2022-10-25T11:34:34.057Z,461
2022-10-25T11:35:49.489Z,461
2022-10-25T11:37:05.675Z,781
2022-10-25T11:38:21.853Z,1282
2022-10-25T11:39:38.042Z,961
2022-10-25T11:40:54.230Z,444
2022-10-25T11:42:10.195Z,1170
2022-10-25T11:43:26.401Z,303
2022-10-25T11:44:42.806Z,1012
2022-10-25T11:45:58.997Z,1524
2022-10-25T11:47:14.947Z,1698
2022-10-25T11:48:31.358Z,1293
2022-10-25T11:49:47.547Z,956
2022-10-25T11:51:03.728Z,421
2022-10-25T11:52:18.951Z,675
2022-10-25T11:53:35.131Z,1023
2022-10-25T11:54:51.313Z,1035
2022-10-25T11:56:07.505Z,725
2022-10-25T11:57:23.683Z,208
2022-10-25T11:58:39.643Z,241
2022-10-25T11:59:56.065Z,303
2022-10-25T12:01:12.251Z,1800
2022-10-25T12:02:28.438Z,174
2022-10-25T12:03:44.627Z,191
2022-10-25T12:05:00.818Z,1845
2022-10-25T12:06:17.011Z,163
2022-10-25T12:07:32.968Z,230
2022-10-25T12:08:48.395Z,151
2022-10-25T12:10:04.578Z,208
2022-10-25T12:11:20.764Z,101
2022-10-25T12:12:36.722Z,101
2022-10-25T12:13:52.919Z,168
2022-10-25T12:15:09.337Z,236
2022-10-25T12:16:25.518Z,213
2022-10-25T12:17:41.702Z,185
2022-10-25T12:18:57.892Z,157
2022-10-25T12:20:14.077Z,191
2022-10-25T12:21:30.260Z,151
2022-10-25T12:22:46.472Z,84
2022-10-25T12:24:02.641Z,90
2022-10-25T12:25:17.840Z,101
2022-10-25T12:26:34.039Z,112
2022-10-25T12:27:50.210Z,90
2022-10-25T12:29:06.176Z,73
2022-10-25T12:30:22.587Z,73
2022-10-25T12:31:38.783Z,56
2022-10-25T12:32:54.978Z,61
2022-10-25T12:34:11.165Z,73
2022-10-25T12:35:27.334Z,95
2022-10-25T12:36:43.299Z,112
2022-10-25T12:37:59.489Z,140
2022-10-25T12:39:15.901Z,129
2022-10-25T12:40:32.086Z,140
2022-10-25T12:41:47.070Z,123
2022-10-25T12:43:03.492Z,118
2022-10-25T12:44:19.434Z,129
2022-10-25T12:45:35.620Z,106
2022-10-25T12:46:51.818Z,112
2022-10-25T12:48:08.230Z,129
2022-10-25T12:49:24.425Z,135
2022-10-25T12:50:40.609Z,95
2022-10-25T12:51:56.564Z,73
2022-10-25T12:53:12.977Z,73
2022-10-25T12:54:29.171Z,78
2022-10-25T12:55:45.365Z,95
2022-10-25T12:57:01.538Z,118
2022-10-25T12:58:16.753Z,140
2022-10-25T12:59:32.701Z,101
2022-10-25T13:00:49.125Z,84
2022-10-25T13:02:05.309Z,67
2022-10-25T13:03:21.251Z,50
2022-10-25T13:04:37.676Z,45
2022-10-25T13:05:53.872Z,39
2022-10-25T13:07:09.829Z,33
2022-10-25T13:08:26.246Z,22
2022-10-25T13:09:42.437Z,22
2022-10-25T13:10:58.616Z,22
2022-10-25T13:12:14.818Z,28
2022-10-25T13:13:31.006Z,33
2022-10-25T13:14:45.963Z,33
2022-10-25T13:16:02.145Z,39
2022-10-25T13:17:18.328Z,45
2022-10-25T13:18:34.758Z,67
2022-10-25T13:19:50.958Z,95
2022-10-25T13:21:07.144Z,106
2022-10-25T13:22:23.072Z,106
2022-10-25T13:23:39.516Z,95
2022-10-25T13:24:55.705Z,95
2022-10-25T13:26:11.652Z,112
2022-10-25T13:27:28.072Z,135
2022-10-25T13:28:44.020Z,135
2022-10-25T13:30:00.453Z,129
2022-10-25T13:31:15.402Z,123
2022-10-25T13:32:31.845Z,106
2022-10-25T13:33:48.017Z,78
2022-10-25T13:35:03.959Z,67
2022-10-25T13:36:20.396Z,50
2022-10-25T13:37:36.338Z,45
2022-10-25T13:38:52.773Z,39
2022-10-25T13:40:08.965Z,39
2022-10-25T13:41:24.911Z,33
2022-10-25T13:42:41.341Z,28
2022-10-25T13:43:57.519Z,22
2022-10-25T13:45:13.456Z,28
2022-10-25T13:46:29.894Z,28
2022-10-25T13:47:44.848Z,28
2022-10-25T13:49:01.295Z,22
2022-10-25T13:50:17.475Z,22
2022-10-25T13:51:33.667Z,22
2022-10-25T13:52:49.599Z,28
2022-10-25T13:54:06.038Z,33
2022-10-25T13:55:22.221Z,33
2022-10-25T13:56:38.162Z,39
2022-10-25T13:57:54.605Z,39
2022-10-25T13:59:10.786Z,39
2022-10-25T14:00:26.721Z,50
2022-10-25T14:01:42.905Z,45
2022-10-25T14:02:59.349Z,39
2022-10-25T14:04:14.553Z,33
2022-10-25T14:05:30.736Z,28
2022-10-25T14:06:46.680Z,22
2022-10-25T14:08:03.119Z,22
2022-10-25T14:09:19.309Z,22
2022-10-25T14:10:35.240Z,22
2022-10-25T14:11:50.697Z,22
2022-10-25T14:13:06.630Z,22
2022-10-25T14:14:23.070Z,22
2022-10-25T14:15:39.263Z,22
2022-10-25T14:16:55.192Z,22
2022-10-25T14:18:11.630Z,22
2022-10-25T14:19:27.575Z,22
2022-10-25T14:20:44.010Z,22
2022-10-25T14:22:00.203Z,22
2022-10-25T14:23:16.377Z,22
2022-10-25T14:24:32.572Z,28
2022-10-25T14:25:48.764Z,45
2022-10-25T14:27:04.957Z,50
2022-10-25T14:28:20.151Z,45
2022-10-25T14:29:36.341Z,39
2022-10-25T14:30:52.259Z,33
2022-10-25T14:32:08.708Z,28
2022-10-25T14:33:24.904Z,28
2022-10-25T14:34:41.092Z,22
2022-10-25T14:35:57.007Z,16
2022-10-25T14:37:13.457Z,11
2022-10-25T14:38:29.380Z,11
2022-10-25T14:39:45.581Z,11
2022-10-25T14:41:02.031Z,11
2022-10-25T14:42:17.959Z,11
2022-10-25T14:43:34.396Z,16
2022-10-25T14:44:49.345Z,22
2022-10-25T14:46:05.535Z,22
2022-10-25T14:47:21.976Z,16
2022-10-25T14:48:37.912Z,22
2022-10-25T14:49:54.360Z,22
2022-10-25T14:51:10.270Z,22
2022-10-25T14:52:26.728Z,22
2022-10-25T14:53:42.654Z,28
2022-10-25T14:54:59.101Z,28
2022-10-25T14:56:15.298Z,28
2022-10-25T14:57:31.469Z,28
2022-10-25T14:58:47.663Z,33
2022-10-25T15:00:03.850Z,39
2022-10-25T15:01:18.783Z,39
2022-10-25T15:02:35.244Z,39
2022-10-25T15:03:51.428Z,33
2022-10-25T15:05:07.619Z,33
2022-10-25T15:06:23.806Z,28
2022-10-25T15:07:39.733Z,22
2022-10-25T15:08:55.903Z,22
2022-10-25T15:10:12.104Z,22
2022-10-25T15:11:28.564Z,16
2022-10-25T15:12:44.733Z,16
2022-10-25T15:14:00.925Z,16
2022-10-25T15:15:17.113Z,16
2022-10-25T15:16:33.038Z,16
2022-10-25T15:17:48.502Z,11
2022-10-25T15:19:04.692Z,11
2022-10-25T15:20:20.882Z,11
2022-10-25T15:21:37.072Z,11
2022-10-25T15:22:52.985Z,11
2022-10-25T15:24:09.182Z,11
2022-10-25T15:25:25.361Z,11
2022-10-25T15:26:41.808Z,11
2022-10-25T15:27:57.996Z,11
2022-10-25T15:29:14.197Z,11
2022-10-25T15:30:30.389Z,5
2022-10-25T15:31:46.295Z,5
2022-10-25T15:33:02.474Z,5
2022-10-25T15:34:17.956Z,5
2022-10-25T15:35:33.875Z,5
2022-10-25T15:36:50.335Z,5
2022-10-25T15:38:06.520Z,0
2022-10-25T15:39:22.436Z,0
2022-10-25T15:40:38.892Z,0
2022-10-25T15:41:55.080Z,0
2022-10-25T15:43:11.264Z,0
2022-10-25T15:44:27.452Z,0
2022-10-25T15:45:43.636Z,0
2022-10-25T15:46:59.829Z,0
2022-10-25T15:48:16.019Z,0
2022-10-25T15:49:32.203Z,0
2022-10-25T15:50:47.417Z,0
2022-10-25T15:52:03.600Z,0
2022-10-25T15:53:19.790Z,0
2022-10-25T15:54:35.695Z,0
2022-10-25T15:55:52.168Z,0
2022-10-25T15:57:08.352Z,0
2022-10-25T15:58:24.532Z,0
2022-10-25T15:59:40.718Z,0
2022-10-25T16:00:56.625Z,0
2022-10-25T16:02:13.100Z,0
2022-10-25T16:03:29.274Z,0
2022-10-25T16:04:45.466Z,0
2022-10-25T16:06:01.658Z,0
2022-10-25T16:07:17.575Z,0
2022-10-25T16:08:33.050Z,0
2022-10-25T16:09:48.964Z,0
2022-10-25T16:11:05.425Z,0
2022-10-25T16:12:21.329Z,0
2022-10-25T16:13:37.507Z,0
2022-10-25T16:14:53.694Z,0
2022-10-25T16:16:10.162Z,0
2022-10-25T16:17:26.356Z,0
2022-10-25T16:18:42.537Z,0
2022-10-25T16:19:58.729Z,0
2022-10-25T16:21:14.912Z,0
2022-10-25T16:22:30.831Z,0
2022-10-25T16:23:47.293Z,0
2022-10-25T16:25:02.205Z,0
2022-10-25T16:26:18.678Z,0
2022-10-25T16:27:34.873Z,0
2022-10-25T16:28:51.065Z,0
2022-10-25T16:30:06.958Z,0
2022-10-25T16:31:23.426Z,0
2022-10-25T16:32:39.629Z,0
2022-10-25T16:33:55.804Z,0
2022-10-25T16:35:11.999Z,0
2022-10-25T16:36:28.182Z,0
2022-10-25T16:37:44.371Z,0
2022-10-25T16:39:00.263Z,0
2022-10-25T16:40:16.742Z,0
2022-10-25T16:41:31.950Z,0
2022-10-25T16:42:48.137Z,0
2022-10-25T16:44:04.316Z,0
2022-10-25T16:45:20.224Z,0
2022-10-25T16:46:36.705Z,0
2022-10-25T16:47:52.875Z,0
2022-10-25T16:49:09.067Z,0
2022-10-25T16:50:25.255Z,0
2022-10-25T16:51:41.155Z,0
2022-10-25T16:52:57.644Z,0
2022-10-25T16:54:13.815Z,0
2022-10-25T16:55:30.009Z,0
2022-10-25T16:56:46.187Z,0
2022-10-25T16:58:01.109Z,0
2022-10-25T16:59:17.594Z,0
2022-10-25T17:00:33.477Z,0
2022-10-25T17:01:49.956Z,0
2022-10-25T17:03:06.140Z,0
2022-10-25T17:04:22.040Z,0
2022-10-25T17:05:38.528Z,0
2022-10-25T17:06:54.702Z,0
2022-10-25T17:08:10.903Z,0
2022-10-25T17:09:26.792Z,0
2022-10-25T17:10:43.277Z,0
2022-10-25T17:11:59.454Z,0
2022-10-25T17:13:15.640Z,0
2022-10-25T17:14:30.549Z,0
2022-10-25T17:15:47.038Z,0
2022-10-25T17:17:03.233Z,0
2022-10-25T17:18:19.113Z,0
2022-10-25T17:19:35.602Z,0
2022-10-25T17:20:51.780Z,0
2022-10-25T17:22:07.971Z,0
2022-10-25T17:23:23.867Z,0
2022-10-25T17:24:40.344Z,0
2022-10-25T17:25:56.247Z,0
2022-10-25T17:27:12.417Z,0
2022-10-25T17:28:28.921Z,0
2022-10-25T17:29:44.805Z,0
2022-10-25T17:31:00.310Z,0
2022-10-25T17:32:16.486Z,0
2022-10-25T17:33:32.374Z,0
2022-10-25T17:34:48.866Z,0
2022-10-25T17:36:04.745Z,0
2022-10-25T17:37:21.237Z,0
2022-10-25T17:38:37.425Z,0
2022-10-25T17:39:53.615Z,0
2022-10-25T17:41:09.495Z,0
2022-10-25T17:42:25.685Z,0
2022-10-25T17:43:41.881Z,0
2022-10-25T17:44:58.369Z,0
2022-10-25T17:46:14.545Z,0
2022-10-25T17:47:29.752Z,0
2022-10-25T17:48:45.631Z,0
2022-10-25T17:50:02.136Z,0
2022-10-25T17:51:18.312Z,0
2022-10-25T17:52:34.502Z,0
2022-10-25T17:53:50.399Z,0
2022-10-25T17:55:06.882Z,0
2022-10-25T17:56:22.760Z,0
2022-10-25T17:57:39.262Z,0
2022-10-25T17:58:55.451Z,0
2022-10-25T18:00:11.644Z,0
2022-10-25T18:01:27.518Z,0
2022-10-25T18:02:44.014Z,0
2022-10-25T18:03:58.909Z,0
2022-10-25T18:05:15.413Z,0
2022-10-25T18:06:31.587Z,0
2022-10-25T18:07:47.481Z,0
2022-10-25T18:09:03.967Z,0
2022-10-25T18:10:20.162Z,0
2022-10-25T18:11:36.054Z,0
2022-10-25T18:12:52.531Z,0
2022-10-25T18:14:08.734Z,0
2022-10-25T18:15:24.911Z,0
2022-10-25T18:16:41.111Z,0
2022-10-25T18:17:57.305Z,0
2022-10-25T18:19:13.476Z,0
2022-10-25T18:20:28.384Z,0
2022-10-25T18:21:44.581Z,0